sensor_id;sensor_type;location;lat;lon;timestamp;P1;durP1;ratioP1;P2;durP2;ratioP2
39982;SDS011;25670;44.782;10.356;2022-07-23T00:01:43;6.60;;;5.97;;
39982;SDS011;25670;44.782;10.356;2022-07-23T00:04:09;7.65;;;6.00;;
39982;SDS011;25670;44.782;10.356;2022-07-23T00:06:35;10.00;;;6.45;;
39982;SDS011;25670;44.782;10.356;2022-07-23T00:09:02;9.60;;;6.20;;
39982;SDS011;25670;44.782;10.356;2022-07-23T00:11:28;10.60;;;6.80;;
39982;SDS011;25670;44.782;10.356;2022-07-23T00:13:54;7.70;;;6.80;;
39982;SDS011;25670;44.782;10.356;2022-07-23T00:16:23;9.35;;;5.93;;
39982;SDS011;25670;44.782;10.356;2022-07-23T00:18:49;6.53;;;6.03;;
39982;SDS011;25670;44.782;10.356;2022-07-23T00:21:15;8.88;;;6.13;;
39982;SDS011;25670;44.782;10.356;2022-07-23T00:23:42;7.47;;;5.95;;
39982;SDS011;25670;44.782;10.356;2022-07-23T00:26:08;6.90;;;6.40;;
39982;SDS011;25670;44.782;10.356;2022-07-23T00:28:34;6.10;;;5.70;;
39982;SDS011;25670;44.782;10.356;2022-07-23T00:31:00;6.80;;;5.85;;
39982;SDS011;25670;44.782;10.356;2022-07-23T00:33:27;6.32;;;5.82;;
39982;SDS011;25670;44.782;10.356;2022-07-23T00:35:53;7.05;;;5.47;;
39982;SDS011;25670;44.782;10.356;2022-07-23T00:38:19;7.55;;;6.15;;
39982;SDS011;25670;44.782;10.356;2022-07-23T00:40:46;9.85;;;5.85;;
39982;SDS011;25670;44.782;10.356;2022-07-23T00:43:12;5.55;;;5.25;;
39982;SDS011;25670;44.782;10.356;2022-07-23T00:45:38;5.88;;;5.47;;
39982;SDS011;25670;44.782;10.356;2022-07-23T00:48:05;7.38;;;6.22;;
39982;SDS011;25670;44.782;10.356;2022-07-23T00:50:32;8.60;;;5.32;;
39982;SDS011;25670;44.782;10.356;2022-07-23T00:52:59;16.35;;;5.80;;
39982;SDS011;25670;44.782;10.356;2022-07-23T00:55:26;5.47;;;5.18;;
39982;SDS011;25670;44.782;10.356;2022-07-23T00:57:52;6.32;;;5.80;;
39982;SDS011;25670;44.782;10.356;2022-07-23T01:00:20;8.20;;;5.43;;
39982;SDS011;25670;44.782;10.356;2022-07-23T01:02:47;5.03;;;4.65;;
39982;SDS011;25670;44.782;10.356;2022-07-23T01:05:13;5.57;;;5.07;;
39982;SDS011;25670;44.782;10.356;2022-07-23T01:07:40;6.15;;;5.43;;
39982;SDS011;25670;44.782;10.356;2022-07-23T01:10:08;5.00;;;4.70;;
39982;SDS011;25670;44.782;10.356;2022-07-23T01:12:53;10.52;;;5.57;;
39982;SDS011;25670;44.782;10.356;2022-07-23T01:18:07;6.13;;;5.30;;
39982;SDS011;25670;44.782;10.356;2022-07-23T01:20:35;5.40;;;5.00;;
39982;SDS011;25670;44.782;10.356;2022-07-23T01:23:02;6.75;;;5.28;;
39982;SDS011;25670;44.782;10.356;2022-07-23T01:25:29;6.03;;;5.60;;
39982;SDS011;25670;44.782;10.356;2022-07-23T01:27:59;6.60;;;5.57;;
39982;SDS011;25670;44.782;10.356;2022-07-23T01:30:28;6.07;;;5.35;;
39982;SDS011;25670;44.782;10.356;2022-07-23T01:32:55;7.65;;;5.50;;
39982;SDS011;25670;44.782;10.356;2022-07-23T01:35:22;6.63;;;5.88;;
39982;SDS011;25670;44.782;10.356;2022-07-23T01:37:50;6.28;;;5.68;;
39982;SDS011;25670;44.782;10.356;2022-07-23T01:40:18;6.93;;;6.35;;
39982;SDS011;25670;44.782;10.356;2022-07-23T01:42:44;6.40;;;5.80;;
39982;SDS011;25670;44.782;10.356;2022-07-23T01:45:12;6.85;;;6.07;;
39982;SDS011;25670;44.782;10.356;2022-07-23T01:47:43;10.23;;;5.63;;
39982;SDS011;25670;44.782;10.356;2022-07-23T01:50:09;8.50;;;5.82;;
39982;SDS011;25670;44.782;10.356;2022-07-23T01:53:08;9.50;;;6.05;;
39982;SDS011;25670;44.782;10.356;2022-07-23T01:55:36;5.85;;;5.38;;
39982;SDS011;25670;44.782;10.356;2022-07-23T01:58:03;6.03;;;5.53;;
39982;SDS011;25670;44.782;10.356;2022-07-23T02:00:31;9.77;;;5.68;;
39982;SDS011;25670;44.782;10.356;2022-07-23T02:02:57;6.38;;;5.88;;
39982;SDS011;25670;44.782;10.356;2022-07-23T02:05:27;6.07;;;5.45;;
39982;SDS011;25670;44.782;10.356;2022-07-23T02:07:54;6.90;;;5.22;;
39982;SDS011;25670;44.782;10.356;2022-07-23T02:10:21;6.30;;;5.50;;
39982;SDS011;25670;44.782;10.356;2022-07-23T02:12:47;7.25;;;5.57;;
39982;SDS011;25670;44.782;10.356;2022-07-23T02:15:14;7.75;;;5.72;;
39982;SDS011;25670;44.782;10.356;2022-07-23T02:17:40;5.95;;;5.40;;
39982;SDS011;25670;44.782;10.356;2022-07-23T02:20:08;5.45;;;5.05;;
39982;SDS011;25670;44.782;10.356;2022-07-23T02:22:35;6.18;;;5.18;;
39982;SDS011;25670;44.782;10.356;2022-07-23T02:25:02;5.72;;;5.00;;
39982;SDS011;25670;44.782;10.356;2022-07-23T02:27:33;11.65;;;5.47;;
39982;SDS011;25670;44.782;10.356;2022-07-23T02:30:03;5.95;;;5.28;;
39982;SDS011;25670;44.782;10.356;2022-07-23T02:32:30;7.85;;;5.05;;
39982;SDS011;25670;44.782;10.356;2022-07-23T02:34:56;7.28;;;5.15;;
39982;SDS011;25670;44.782;10.356;2022-07-23T02:37:23;5.10;;;4.70;;
39982;SDS011;25670;44.782;10.356;2022-07-23T02:39:49;6.45;;;5.43;;
39982;SDS011;25670;44.782;10.356;2022-07-23T02:42:16;5.13;;;4.72;;
39982;SDS011;25670;44.782;10.356;2022-07-23T02:44:43;8.05;;;5.15;;
39982;SDS011;25670;44.782;10.356;2022-07-23T02:47:09;9.02;;;4.53;;
39982;SDS011;25670;44.782;10.356;2022-07-23T02:49:36;6.63;;;4.22;;
39982;SDS011;25670;44.782;10.356;2022-07-23T02:52:05;7.35;;;3.95;;
39982;SDS011;25670;44.782;10.356;2022-07-23T02:54:31;5.47;;;4.22;;
39982;SDS011;25670;44.782;10.356;2022-07-23T02:56:57;5.22;;;4.78;;
39982;SDS011;25670;44.782;10.356;2022-07-23T02:59:23;6.43;;;4.20;;
39982;SDS011;25670;44.782;10.356;2022-07-23T03:01:50;4.45;;;4.00;;
39982;SDS011;25670;44.782;10.356;2022-07-23T03:04:17;6.03;;;4.30;;
39982;SDS011;25670;44.782;10.356;2022-07-23T03:06:43;7.65;;;4.35;;
39982;SDS011;25670;44.782;10.356;2022-07-23T03:09:10;5.25;;;3.50;;
39982;SDS011;25670;44.782;10.356;2022-07-23T03:11:38;4.15;;;3.85;;
39982;SDS011;25670;44.782;10.356;2022-07-23T03:14:05;3.83;;;3.63;;
39982;SDS011;25670;44.782;10.356;2022-07-23T03:16:32;8.13;;;3.88;;
39982;SDS011;25670;44.782;10.356;2022-07-23T03:18:59;5.13;;;4.65;;
39982;SDS011;25670;44.782;10.356;2022-07-23T03:21:26;8.80;;;3.78;;
39982;SDS011;25670;44.782;10.356;2022-07-23T03:23:52;5.30;;;4.22;;
39982;SDS011;25670;44.782;10.356;2022-07-23T03:26:19;4.00;;;3.72;;
39982;SDS011;25670;44.782;10.356;2022-07-23T03:28:45;5.97;;;4.15;;
39982;SDS011;25670;44.782;10.356;2022-07-23T03:31:11;5.85;;;4.28;;
39982;SDS011;25670;44.782;10.356;2022-07-23T03:33:39;11.32;;;4.68;;
39982;SDS011;25670;44.782;10.356;2022-07-23T03:36:05;4.30;;;4.00;;
39982;SDS011;25670;44.782;10.356;2022-07-23T03:38:36;6.63;;;4.57;;
39982;SDS011;25670;44.782;10.356;2022-07-23T03:41:03;4.68;;;4.05;;
39982;SDS011;25670;44.782;10.356;2022-07-23T03:43:29;4.78;;;4.20;;
39982;SDS011;25670;44.782;10.356;2022-07-23T03:45:56;5.72;;;4.45;;
39982;SDS011;25670;44.782;10.356;2022-07-23T03:48:22;4.45;;;3.92;;
39982;SDS011;25670;44.782;10.356;2022-07-23T03:50:48;4.50;;;4.10;;
39982;SDS011;25670;44.782;10.356;2022-07-23T03:53:17;7.03;;;3.63;;
39982;SDS011;25670;44.782;10.356;2022-07-23T03:55:43;3.72;;;3.53;;
39982;SDS011;25670;44.782;10.356;2022-07-23T03:58:10;4.28;;;3.95;;
39982;SDS011;25670;44.782;10.356;2022-07-23T04:00:36;4.28;;;3.95;;
39982;SDS011;25670;44.782;10.356;2022-07-23T04:03:03;5.32;;;4.82;;
39982;SDS011;25670;44.782;10.356;2022-07-23T04:05:30;5.20;;;4.80;;
39982;SDS011;25670;44.782;10.356;2022-07-23T04:08:05;7.82;;;3.78;;
39982;SDS011;25670;44.782;10.356;2022-07-23T04:10:32;4.25;;;3.95;;
39982;SDS011;25670;44.782;10.356;2022-07-23T04:12:58;4.47;;;4.07;;
39982;SDS011;25670;44.782;10.356;2022-07-23T04:15:25;4.45;;;4.05;;
39982;SDS011;25670;44.782;10.356;2022-07-23T04:17:55;4.90;;;4.32;;
39982;SDS011;25670;44.782;10.356;2022-07-23T04:20:27;6.60;;;4.32;;
39982;SDS011;25670;44.782;10.356;2022-07-23T04:23:00;7.03;;;4.28;;
39982;SDS011;25670;44.782;10.356;2022-07-23T04:25:27;5.18;;;4.13;;
39982;SDS011;25670;44.782;10.356;2022-07-23T04:27:53;4.45;;;4.05;;
39982;SDS011;25670;44.782;10.356;2022-07-23T04:30:19;6.15;;;4.20;;
39982;SDS011;25670;44.782;10.356;2022-07-23T04:32:46;7.22;;;4.25;;
39982;SDS011;25670;44.782;10.356;2022-07-23T04:35:18;7.38;;;3.53;;
39982;SDS011;25670;44.782;10.356;2022-07-23T04:37:45;7.25;;;4.40;;
39982;SDS011;25670;44.782;10.356;2022-07-23T04:40:12;4.97;;;3.50;;
39982;SDS011;25670;44.782;10.356;2022-07-23T04:42:39;4.47;;;4.07;;
39982;SDS011;25670;44.782;10.356;2022-07-23T04:45:06;4.03;;;3.63;;
39982;SDS011;25670;44.782;10.356;2022-07-23T04:47:33;4.90;;;4.00;;
39982;SDS011;25670;44.782;10.356;2022-07-23T04:49:59;6.28;;;4.00;;
39982;SDS011;25670;44.782;10.356;2022-07-23T04:52:26;3.88;;;3.58;;
39982;SDS011;25670;44.782;10.356;2022-07-23T04:54:52;7.95;;;4.28;;
39982;SDS011;25670;44.782;10.356;2022-07-23T04:57:18;11.57;;;4.10;;
39982;SDS011;25670;44.782;10.356;2022-07-23T04:59:45;8.52;;;4.00;;
39982;SDS011;25670;44.782;10.356;2022-07-23T05:02:12;4.60;;;4.20;;
39982;SDS011;25670;44.782;10.356;2022-07-23T05:04:39;7.18;;;4.60;;
39982;SDS011;25670;44.782;10.356;2022-07-23T05:07:06;11.95;;;3.63;;
39982;SDS011;25670;44.782;10.356;2022-07-23T05:09:33;6.43;;;3.97;;
39982;SDS011;25670;44.782;10.356;2022-07-23T05:12:00;3.88;;;3.53;;
39982;SDS011;25670;44.782;10.356;2022-07-23T05:14:26;5.18;;;3.78;;
39982;SDS011;25670;44.782;10.356;2022-07-23T05:16:53;8.25;;;4.10;;
39982;SDS011;25670;44.782;10.356;2022-07-23T05:19:22;4.22;;;3.92;;
39982;SDS011;25670;44.782;10.356;2022-07-23T05:21:49;8.95;;;5.05;;
39982;SDS011;25670;44.782;10.356;2022-07-23T05:24:15;4.00;;;3.70;;
39982;SDS011;25670;44.782;10.356;2022-07-23T05:26:42;4.95;;;4.55;;
39982;SDS011;25670;44.782;10.356;2022-07-23T05:29:08;5.03;;;4.60;;
39982;SDS011;25670;44.782;10.356;2022-07-23T05:31:34;8.70;;;4.20;;
39982;SDS011;25670;44.782;10.356;2022-07-23T05:34:01;7.90;;;4.43;;
39982;SDS011;25670;44.782;10.356;2022-07-23T05:36:28;4.45;;;4.05;;
39982;SDS011;25670;44.782;10.356;2022-07-23T05:38:56;7.53;;;4.20;;
39982;SDS011;25670;44.782;10.356;2022-07-23T05:41:23;4.97;;;4.05;;
39982;SDS011;25670;44.782;10.356;2022-07-23T05:43:49;6.28;;;4.00;;
39982;SDS011;25670;44.782;10.356;2022-07-23T05:46:16;5.30;;;4.50;;
39982;SDS011;25670;44.782;10.356;2022-07-23T05:48:46;6.22;;;4.18;;
39982;SDS011;25670;44.782;10.356;2022-07-23T05:51:33;4.53;;;4.20;;
39982;SDS011;25670;44.782;10.356;2022-07-23T05:54:00;4.93;;;4.35;;
39982;SDS011;25670;44.782;10.356;2022-07-23T05:58:57;6.10;;;3.97;;
39982;SDS011;25670;44.782;10.356;2022-07-23T06:01:23;4.63;;;4.22;;
39982;SDS011;25670;44.782;10.356;2022-07-23T06:03:59;3.85;;;3.63;;
39982;SDS011;25670;44.782;10.356;2022-07-23T06:06:32;5.95;;;4.60;;
39982;SDS011;25670;44.782;10.356;2022-07-23T06:08:59;4.90;;;3.50;;
39982;SDS011;25670;44.782;10.356;2022-07-23T06:11:26;4.30;;;4.00;;
39982;SDS011;25670;44.782;10.356;2022-07-23T06:13:52;4.43;;;3.45;;
39982;SDS011;25670;44.782;10.356;2022-07-23T06:16:22;5.83;;;4.20;;
39982;SDS011;25670;44.782;10.356;2022-07-23T06:18:49;7.97;;;4.38;;
39982;SDS011;25670;44.782;10.356;2022-07-23T06:21:15;5.53;;;4.05;;
39982;SDS011;25670;44.782;10.356;2022-07-23T06:23:41;5.30;;;4.30;;
39982;SDS011;25670;44.782;10.356;2022-07-23T06:26:12;8.05;;;4.10;;
39982;SDS011;25670;44.782;10.356;2022-07-23T06:28:38;6.97;;;3.97;;
39982;SDS011;25670;44.782;10.356;2022-07-23T06:31:05;5.93;;;4.07;;
39982;SDS011;25670;44.782;10.356;2022-07-23T06:33:31;6.05;;;4.25;;
39982;SDS011;25670;44.782;10.356;2022-07-23T06:35:58;10.90;;;4.28;;
39982;SDS011;25670;44.782;10.356;2022-07-23T06:38:24;5.68;;;3.85;;
39982;SDS011;25670;44.782;10.356;2022-07-23T06:40:51;11.27;;;4.10;;
39982;SDS011;25670;44.782;10.356;2022-07-23T06:43:17;5.18;;;3.70;;
39982;SDS011;25670;44.782;10.356;2022-07-23T06:45:44;6.18;;;3.88;;
39982;SDS011;25670;44.782;10.356;2022-07-23T06:48:11;5.93;;;3.95;;
39982;SDS011;25670;44.782;10.356;2022-07-23T06:50:37;8.13;;;4.00;;
39982;SDS011;25670;44.782;10.356;2022-07-23T06:53:03;6.63;;;3.42;;
39982;SDS011;25670;44.782;10.356;2022-07-23T06:55:30;9.30;;;4.20;;
39982;SDS011;25670;44.782;10.356;2022-07-23T06:57:56;4.43;;;3.90;;
39982;SDS011;25670;44.782;10.356;2022-07-23T07:00:23;6.20;;;4.05;;
39982;SDS011;25670;44.782;10.356;2022-07-23T07:02:53;5.57;;;3.80;;
39982;SDS011;25670;44.782;10.356;2022-07-23T07:05:20;6.07;;;4.10;;
39982;SDS011;25670;44.782;10.356;2022-07-23T07:07:46;8.50;;;3.50;;
39982;SDS011;25670;44.782;10.356;2022-07-23T07:10:12;10.73;;;5.03;;
39982;SDS011;25670;44.782;10.356;2022-07-23T07:12:39;5.47;;;4.32;;
39982;SDS011;25670;44.782;10.356;2022-07-23T07:15:05;7.65;;;4.97;;
39982;SDS011;25670;44.782;10.356;2022-07-23T07:17:31;5.13;;;4.35;;
39982;SDS011;25670;44.782;10.356;2022-07-23T07:19:58;7.47;;;4.15;;
39982;SDS011;25670;44.782;10.356;2022-07-23T07:22:24;4.70;;;4.20;;
39982;SDS011;25670;44.782;10.356;2022-07-23T07:24:50;7.20;;;4.97;;
39982;SDS011;25670;44.782;10.356;2022-07-23T07:27:16;6.50;;;4.80;;
39982;SDS011;25670;44.782;10.356;2022-07-23T07:29:42;10.15;;;4.93;;
39982;SDS011;25670;44.782;10.356;2022-07-23T07:32:09;6.10;;;4.40;;
39982;SDS011;25670;44.782;10.356;2022-07-23T07:34:35;8.90;;;4.63;;
39982;SDS011;25670;44.782;10.356;2022-07-23T07:37:01;7.00;;;5.35;;
39982;SDS011;25670;44.782;10.356;2022-07-23T07:39:27;7.65;;;5.35;;
39982;SDS011;25670;44.782;10.356;2022-07-23T07:41:54;12.60;;;5.57;;
39982;SDS011;25670;44.782;10.356;2022-07-23T07:44:20;6.50;;;4.97;;
39982;SDS011;25670;44.782;10.356;2022-07-23T07:46:46;8.35;;;5.47;;
39982;SDS011;25670;44.782;10.356;2022-07-23T07:49:13;10.27;;;5.25;;
39982;SDS011;25670;44.782;10.356;2022-07-23T07:51:39;12.05;;;5.38;;
39982;SDS011;25670;44.782;10.356;2022-07-23T07:54:05;7.80;;;5.60;;
39982;SDS011;25670;44.782;10.356;2022-07-23T07:56:34;10.85;;;6.05;;
39982;SDS011;25670;44.782;10.356;2022-07-23T07:59:00;12.25;;;5.75;;
39982;SDS011;25670;44.782;10.356;2022-07-23T08:01:29;7.28;;;6.32;;
39982;SDS011;25670;44.782;10.356;2022-07-23T08:03:55;10.63;;;6.32;;
39982;SDS011;25670;44.782;10.356;2022-07-23T08:06:22;12.02;;;5.63;;
39982;SDS011;25670;44.782;10.356;2022-07-23T08:08:48;10.45;;;6.38;;
39982;SDS011;25670;44.782;10.356;2022-07-23T08:11:14;10.43;;;6.28;;
39982;SDS011;25670;44.782;10.356;2022-07-23T08:13:41;11.40;;;5.60;;
39982;SDS011;25670;44.782;10.356;2022-07-23T08:16:10;11.57;;;6.63;;
39982;SDS011;25670;44.782;10.356;2022-07-23T08:18:37;14.60;;;7.72;;
39982;SDS011;25670;44.782;10.356;2022-07-23T08:21:03;7.70;;;5.75;;
39982;SDS011;25670;44.782;10.356;2022-07-23T08:23:31;18.67;;;7.60;;
39982;SDS011;25670;44.782;10.356;2022-07-23T08:25:57;16.40;;;6.72;;
39982;SDS011;25670;44.782;10.356;2022-07-23T08:28:25;13.07;;;6.72;;
39982;SDS011;25670;44.782;10.356;2022-07-23T08:30:51;12.00;;;6.90;;
39982;SDS011;25670;44.782;10.356;2022-07-23T08:33:18;7.82;;;6.78;;
39982;SDS011;25670;44.782;10.356;2022-07-23T08:35:46;7.85;;;5.95;;
39982;SDS011;25670;44.782;10.356;2022-07-23T08:38:16;13.48;;;6.68;;
39982;SDS011;25670;44.782;10.356;2022-07-23T08:40:44;9.60;;;5.97;;
39982;SDS011;25670;44.782;10.356;2022-07-23T08:46:01;11.00;;;6.80;;
39982;SDS011;25670;44.782;10.356;2022-07-23T08:48:30;10.85;;;6.85;;
39982;SDS011;25670;44.782;10.356;2022-07-23T08:51:00;7.18;;;6.20;;
39982;SDS011;25670;44.782;10.356;2022-07-23T08:53:27;11.75;;;6.30;;
39982;SDS011;25670;44.782;10.356;2022-07-23T08:55:55;8.45;;;6.22;;
39982;SDS011;25670;44.782;10.356;2022-07-23T08:58:23;6.55;;;5.78;;
39982;SDS011;25670;44.782;10.356;2022-07-23T09:00:50;8.25;;;6.80;;
39982;SDS011;25670;44.782;10.356;2022-07-23T09:03:24;7.00;;;6.22;;
39982;SDS011;25670;44.782;10.356;2022-07-23T09:05:56;8.98;;;5.97;;
39982;SDS011;25670;44.782;10.356;2022-07-23T09:08:24;10.50;;;6.72;;
39982;SDS011;25670;44.782;10.356;2022-07-23T09:11:00;7.20;;;6.60;;
39982;SDS011;25670;44.782;10.356;2022-07-23T09:13:29;9.63;;;6.75;;
39982;SDS011;25670;44.782;10.356;2022-07-23T09:15:59;17.10;;;7.28;;
39982;SDS011;25670;44.782;10.356;2022-07-23T09:21:10;7.95;;;6.97;;
39982;SDS011;25670;44.782;10.356;2022-07-23T09:23:47;7.95;;;6.63;;
39982;SDS011;25670;44.782;10.356;2022-07-23T09:26:32;9.52;;;7.05;;
39982;SDS011;25670;44.782;10.356;2022-07-23T09:29:16;14.48;;;7.65;;
39982;SDS011;25670;44.782;10.356;2022-07-23T09:34:26;8.20;;;7.30;;
39982;SDS011;25670;44.782;10.356;2022-07-23T09:36:54;9.13;;;6.80;;
39982;SDS011;25670;44.782;10.356;2022-07-23T09:39:27;8.00;;;7.20;;
39982;SDS011;25670;44.782;10.356;2022-07-23T09:41:59;13.43;;;6.88;;
39982;SDS011;25670;44.782;10.356;2022-07-23T09:44:43;8.82;;;6.43;;
39982;SDS011;25670;44.782;10.356;2022-07-23T09:47:10;11.85;;;6.75;;
39982;SDS011;25670;44.782;10.356;2022-07-23T09:49:36;7.55;;;6.35;;
39982;SDS011;25670;44.782;10.356;2022-07-23T09:52:03;8.60;;;6.10;;
39982;SDS011;25670;44.782;10.356;2022-07-23T09:54:39;7.13;;;6.50;;
39982;SDS011;25670;44.782;10.356;2022-07-23T09:57:07;11.90;;;7.20;;
39982;SDS011;25670;44.782;10.356;2022-07-23T09:59:38;13.88;;;6.38;;
39982;SDS011;25670;44.782;10.356;2022-07-23T10:02:06;7.20;;;6.60;;
39982;SDS011;25670;44.782;10.356;2022-07-23T10:04:43;8.27;;;7.13;;
39982;SDS011;25670;44.782;10.356;2022-07-23T10:07:22;10.25;;;7.10;;
39982;SDS011;25670;44.782;10.356;2022-07-23T10:10:10;9.23;;;6.70;;
39982;SDS011;25670;44.782;10.356;2022-07-23T10:13:17;11.40;;;7.15;;
39982;SDS011;25670;44.782;10.356;2022-07-23T10:15:55;9.65;;;6.22;;
39982;SDS011;25670;44.782;10.356;2022-07-23T10:18:21;7.35;;;6.18;;
39982;SDS011;25670;44.782;10.356;2022-07-23T10:20:48;7.28;;;6.20;;
39982;SDS011;25670;44.782;10.356;2022-07-23T10:23:24;7.80;;;6.57;;
39982;SDS011;25670;44.782;10.356;2022-07-23T10:26:35;9.18;;;6.07;;
39982;SDS011;25670;44.782;10.356;2022-07-23T10:29:02;8.15;;;6.25;;
39982;SDS011;25670;44.782;10.356;2022-07-23T10:32:00;8.23;;;6.78;;
39982;SDS011;25670;44.782;10.356;2022-07-23T10:37:42;14.00;;;6.00;;
39982;SDS011;25670;44.782;10.356;2022-07-23T10:40:25;9.43;;;5.70;;
39982;SDS011;25670;44.782;10.356;2022-07-23T10:42:54;6.90;;;6.30;;
39982;SDS011;25670;44.782;10.356;2022-07-23T10:45:27;7.60;;;6.32;;
39982;SDS011;25670;44.782;10.356;2022-07-23T10:51:11;7.05;;;5.68;;
39982;SDS011;25670;44.782;10.356;2022-07-23T10:59:15;6.57;;;6.07;;
39982;SDS011;25670;44.782;10.356;2022-07-23T11:01:42;10.48;;;5.80;;
39982;SDS011;25670;44.782;10.356;2022-07-23T11:04:08;8.85;;;5.55;;
39982;SDS011;25670;44.782;10.356;2022-07-23T11:17:32;7.55;;;5.90;;
39982;SDS011;25670;44.782;10.356;2022-07-23T11:25:11;7.03;;;5.95;;
39982;SDS011;25670;44.782;10.356;2022-07-23T11:27:47;8.82;;;6.10;;
39982;SDS011;25670;44.782;10.356;2022-07-23T11:32:54;6.20;;;5.75;;
39982;SDS011;25670;44.782;10.356;2022-07-23T11:35:33;6.32;;;5.78;;
39982;SDS011;25670;44.782;10.356;2022-07-23T11:38:07;6.45;;;5.85;;
39982;SDS011;25670;44.782;10.356;2022-07-23T11:40:42;9.40;;;6.33;;
39982;SDS011;25670;44.782;10.356;2022-07-23T11:43:10;5.72;;;5.10;;
39982;SDS011;25670;44.782;10.356;2022-07-23T11:45:38;6.90;;;5.75;;
39982;SDS011;25670;44.782;10.356;2022-07-23T11:48:08;7.10;;;5.25;;
39982;SDS011;25670;44.782;10.356;2022-07-23T11:50:36;6.15;;;5.70;;
39982;SDS011;25670;44.782;10.356;2022-07-23T11:53:02;6.10;;;5.43;;
39982;SDS011;25670;44.782;10.356;2022-07-23T11:55:29;6.25;;;5.72;;
39982;SDS011;25670;44.782;10.356;2022-07-23T11:57:55;9.63;;;5.95;;
39982;SDS011;25670;44.782;10.356;2022-07-23T12:00:23;6.53;;;5.70;;
39982;SDS011;25670;44.782;10.356;2022-07-23T12:02:51;12.45;;;5.60;;
39982;SDS011;25670;44.782;10.356;2022-07-23T12:05:20;6.90;;;5.93;;
39982;SDS011;25670;44.782;10.356;2022-07-23T12:07:48;9.57;;;5.38;;
39982;SDS011;25670;44.782;10.356;2022-07-23T12:10:18;9.00;;;5.65;;
39982;SDS011;25670;44.782;10.356;2022-07-23T12:15:20;6.30;;;5.90;;
39982;SDS011;25670;44.782;10.356;2022-07-23T12:17:49;7.80;;;5.93;;
39982;SDS011;25670;44.782;10.356;2022-07-23T12:20:36;5.85;;;5.05;;
39982;SDS011;25670;44.782;10.356;2022-07-23T12:23:05;6.55;;;5.60;;
39982;SDS011;25670;44.782;10.356;2022-07-23T12:25:33;6.30;;;5.78;;
39982;SDS011;25670;44.782;10.356;2022-07-23T12:30:45;5.80;;;5.43;;
39982;SDS011;25670;44.782;10.356;2022-07-23T12:33:14;7.20;;;6.60;;
39982;SDS011;25670;44.782;10.356;2022-07-23T12:35:47;7.00;;;6.32;;
39982;SDS011;25670;44.782;10.356;2022-07-23T12:38:20;8.40;;;6.63;;
39982;SDS011;25670;44.782;10.356;2022-07-23T12:40:55;5.88;;;5.47;;
39982;SDS011;25670;44.782;10.356;2022-07-23T12:43:26;8.30;;;6.40;;
39982;SDS011;25670;44.782;10.356;2022-07-23T12:46:10;10.90;;;6.30;;
39982;SDS011;25670;44.782;10.356;2022-07-23T12:51:16;9.65;;;5.93;;
39982;SDS011;25670;44.782;10.356;2022-07-23T12:53:43;6.57;;;5.97;;
39982;SDS011;25670;44.782;10.356;2022-07-23T12:56:12;6.72;;;6.22;;
39982;SDS011;25670;44.782;10.356;2022-07-23T13:06:35;10.88;;;7.25;;
39982;SDS011;25670;44.782;10.356;2022-07-23T13:09:10;7.35;;;6.72;;
39982;SDS011;25670;44.782;10.356;2022-07-23T13:11:38;7.03;;;6.35;;
39982;SDS011;25670;44.782;10.356;2022-07-23T13:14:05;8.10;;;5.90;;
39982;SDS011;25670;44.782;10.356;2022-07-23T13:16:32;12.15;;;6.22;;
39982;SDS011;25670;44.782;10.356;2022-07-23T13:18:59;7.15;;;6.57;;
39982;SDS011;25670;44.782;10.356;2022-07-23T13:21:27;11.18;;;5.88;;
39982;SDS011;25670;44.782;10.356;2022-07-23T13:23:56;9.18;;;6.43;;
39982;SDS011;25670;44.782;10.356;2022-07-23T13:26:22;9.10;;;6.75;;
39982;SDS011;25670;44.782;10.356;2022-07-23T13:28:49;13.43;;;6.13;;
39982;SDS011;25670;44.782;10.356;2022-07-23T13:31:16;13.57;;;6.40;;
39982;SDS011;25670;44.782;10.356;2022-07-23T13:33:43;8.95;;;6.38;;
39982;SDS011;25670;44.782;10.356;2022-07-23T13:36:10;6.95;;;6.38;;
39982;SDS011;25670;44.782;10.356;2022-07-23T13:38:36;10.88;;;6.75;;
39982;SDS011;25670;44.782;10.356;2022-07-23T13:41:04;7.68;;;6.00;;
39982;SDS011;25670;44.782;10.356;2022-07-23T13:43:31;7.10;;;6.40;;
39982;SDS011;25670;44.782;10.356;2022-07-23T13:45:58;7.88;;;6.00;;
39982;SDS011;25670;44.782;10.356;2022-07-23T13:48:25;10.38;;;7.00;;
39982;SDS011;25670;44.782;10.356;2022-07-23T13:50:52;6.47;;;6.10;;
39982;SDS011;25670;44.782;10.356;2022-07-23T13:53:19;11.10;;;6.35;;
39982;SDS011;25670;44.782;10.356;2022-07-23T13:55:49;7.10;;;6.40;;
39982;SDS011;25670;44.782;10.356;2022-07-23T13:58:16;7.28;;;6.60;;
39982;SDS011;25670;44.782;10.356;2022-07-23T14:00:45;7.95;;;6.28;;
39982;SDS011;25670;44.782;10.356;2022-07-23T14:03:13;6.65;;;5.90;;
39982;SDS011;25670;44.782;10.356;2022-07-23T14:05:39;10.25;;;6.13;;
39982;SDS011;25670;44.782;10.356;2022-07-23T14:08:07;7.10;;;6.50;;
39982;SDS011;25670;44.782;10.356;2022-07-23T14:10:33;9.73;;;6.15;;
39982;SDS011;25670;44.782;10.356;2022-07-23T14:13:00;7.05;;;6.10;;
39982;SDS011;25670;44.782;10.356;2022-07-23T14:15:27;7.40;;;6.68;;
39982;SDS011;25670;44.782;10.356;2022-07-23T14:17:55;12.85;;;6.68;;
39982;SDS011;25670;44.782;10.356;2022-07-23T14:20:21;6.82;;;6.32;;
39982;SDS011;25670;44.782;10.356;2022-07-23T14:22:48;6.80;;;6.40;;
39982;SDS011;25670;44.782;10.356;2022-07-23T14:25:15;7.22;;;6.63;;
39982;SDS011;25670;44.782;10.356;2022-07-23T14:27:43;9.63;;;6.88;;
39982;SDS011;25670;44.782;10.356;2022-07-23T14:30:10;8.30;;;6.53;;
39982;SDS011;25670;44.782;10.356;2022-07-23T14:32:37;11.82;;;6.53;;
39982;SDS011;25670;44.782;10.356;2022-07-23T14:35:04;9.93;;;6.03;;
39982;SDS011;25670;44.782;10.356;2022-07-23T14:37:31;9.15;;;6.20;;
39982;SDS011;25670;44.782;10.356;2022-07-23T14:39:58;7.63;;;6.22;;
39982;SDS011;25670;44.782;10.356;2022-07-23T14:42:25;8.07;;;6.03;;
39982;SDS011;25670;44.782;10.356;2022-07-23T14:44:51;12.05;;;6.90;;
39982;SDS011;25670;44.782;10.356;2022-07-23T14:47:17;7.60;;;6.97;;
39982;SDS011;25670;44.782;10.356;2022-07-23T14:49:43;6.93;;;4.20;;
39982;SDS011;25670;44.782;10.356;2022-07-23T14:52:10;14.27;;;3.85;;
39982;SDS011;25670;44.782;10.356;2022-07-23T14:54:36;7.47;;;3.88;;
39982;SDS011;25670;44.782;10.356;2022-07-23T14:57:03;9.02;;;4.00;;
39982;SDS011;25670;44.782;10.356;2022-07-23T14:59:29;7.93;;;4.32;;
39982;SDS011;25670;44.782;10.356;2022-07-23T15:01:56;6.93;;;4.30;;
39982;SDS011;25670;44.782;10.356;2022-07-23T15:04:23;5.57;;;4.07;;
39982;SDS011;25670;44.782;10.356;2022-07-23T15:06:50;4.93;;;4.43;;
39982;SDS011;25670;44.782;10.356;2022-07-23T15:09:17;5.50;;;3.30;;
39982;SDS011;25670;44.782;10.356;2022-07-23T15:11:43;4.25;;;3.42;;
39982;SDS011;25670;44.782;10.356;2022-07-23T15:14:10;5.70;;;3.42;;
39982;SDS011;25670;44.782;10.356;2022-07-23T15:16:36;4.95;;;3.85;;
39982;SDS011;25670;44.782;10.356;2022-07-23T15:19:03;7.82;;;3.60;;
39982;SDS011;25670;44.782;10.356;2022-07-23T15:21:30;7.75;;;3.33;;
39982;SDS011;25670;44.782;10.356;2022-07-23T15:24:04;4.05;;;3.65;;
39982;SDS011;25670;44.782;10.356;2022-07-23T15:26:30;10.05;;;3.40;;
39982;SDS011;25670;44.782;10.356;2022-07-23T15:28:56;13.52;;;4.65;;
39982;SDS011;25670;44.782;10.356;2022-07-23T15:31:24;7.10;;;3.35;;
39982;SDS011;25670;44.782;10.356;2022-07-23T15:33:51;4.65;;;3.50;;
39982;SDS011;25670;44.782;10.356;2022-07-23T15:36:17;7.35;;;3.40;;
39982;SDS011;25670;44.782;10.356;2022-07-23T15:38:45;7.85;;;3.30;;
39982;SDS011;25670;44.782;10.356;2022-07-23T15:41:12;4.88;;;3.58;;